sensor_id;sensor_type;location;lat;lon;timestamp;temperature;humidity
21331;DHT22;10824;51.632;4.950;2023-06-22T00:00:23;20.20;99.90
21331;DHT22;10824;51.632;4.950;2023-06-22T00:02:50;20.10;99.90
21331;DHT22;10824;51.632;4.950;2023-06-22T00:05:18;20.10;99.90
21331;DHT22;10824;51.632;4.950;2023-06-22T00:07:45;20.20;99.90
21331;DHT22;10824;51.632;4.950;2023-06-22T00:10:12;20.00;99.90
21331;DHT22;10824;51.632;4.950;2023-06-22T00:12:43;20.00;99.90
21331;DHT22;10824;51.632;4.950;2023-06-22T00:15:44;20.00;99.90
21331;DHT22;10824;51.632;4.950;2023-06-22T00:18:12;20.00;99.90
21331;DHT22;10824;51.632;4.950;2023-06-22T00:20:41;20.00;99.90
21331;DHT22;10824;51.632;4.950;2023-06-22T00:23:09;20.00;99.90
21331;DHT22;10824;51.632;4.950;2023-06-22T00:25:37;20.00;99.90
21331;DHT22;10824;51.632;4.950;2023-06-22T00:28:05;19.90;99.90
21331;DHT22;10824;51.632;4.950;2023-06-22T00:30:34;19.90;99.90
21331;DHT22;10824;51.632;4.950;2023-06-22T00:33:02;20.00;99.90
21331;DHT22;10824;51.632;4.950;2023-06-22T00:35:29;19.90;99.90
21331;DHT22;10824;51.632;4.950;2023-06-22T00:37:59;19.80;99.90
21331;DHT22;10824;51.632;4.950;2023-06-22T00:40:33;19.80;99.90
21331;DHT22;10824;51.632;4.950;2023-06-22T00:43:00;19.70;99.90
21331;DHT22;10824;51.632;4.950;2023-06-22T00:45:28;19.70;99.90
21331;DHT22;10824;51.632;4.950;2023-06-22T00:47:57;19.70;99.90
21331;DHT22;10824;51.632;4.950;2023-06-22T00:50:30;19.60;99.90
21331;DHT22;10824;51.632;4.950;2023-06-22T00:53:07;19.60;99.90
21331;DHT22;10824;51.632;4.950;2023-06-22T00:55:45;19.60;99.90
21331;DHT22;10824;51.632;4.950;2023-06-22T00:58:14;19.50;99.90
21331;DHT22;10824;51.632;4.950;2023-06-22T01:00:41;19.50;1.00
21331;DHT22;10824;51.632;4.950;2023-06-22T01:03:09;19.40;1.00
21331;DHT22;10824;51.632;4.950;2023-06-22T01:05:38;19.40;1.00
21331;DHT22;10824;51.632;4.950;2023-06-22T01:08:12;19.40;1.00
21331;DHT22;10824;51.632;4.950;2023-06-22T01:16:24;19.40;1.00
21331;DHT22;10824;51.632;4.950;2023-06-22T01:18:54;19.50;1.00
21331;DHT22;10824;51.632;4.950;2023-06-22T01:21:24;19.40;1.00
21331;DHT22;10824;51.632;4.950;2023-06-22T01:24:14;19.30;1.00
21331;DHT22;10824;51.632;4.950;2023-06-22T01:26:57;19.30;1.00
21331;DHT22;10824;51.632;4.950;2023-06-22T01:29:29;19.30;1.00
21331;DHT22;10824;51.632;4.950;2023-06-22T01:31:57;19.20;1.00
21331;DHT22;10824;51.632;4.950;2023-06-22T01:34:29;19.20;7.50
21331;DHT22;10824;51.632;4.950;2023-06-22T01:36:59;19.20;50.10
21331;DHT22;10824;51.632;4.950;2023-06-22T01:39:29;19.10;97.60
21331;DHT22;10824;51.632;4.950;2023-06-22T01:41:58;19.20;92.10
21331;DHT22;10824;51.632;4.950;2023-06-22T01:44:25;19.10;99.90
21331;DHT22;10824;51.632;4.950;2023-06-22T01:46:53;19.00;99.90
21331;DHT22;10824;51.632;4.950;2023-06-22T01:49:21;18.90;99.90
21331;DHT22;10824;51.632;4.950;2023-06-22T01:51:49;19.00;99.90
21331;DHT22;10824;51.632;4.950;2023-06-22T01:54:16;18.80;99.90
21331;DHT22;10824;51.632;4.950;2023-06-22T01:56:46;18.80;1.00
21331;DHT22;10824;51.632;4.950;2023-06-22T01:59:56;18.90;1.00
21331;DHT22;10824;51.632;4.950;2023-06-22T02:02:24;18.90;1.00
21331;DHT22;10824;51.632;4.950;2023-06-22T02:04:59;18.80;1.00
21331;DHT22;10824;51.632;4.950;2023-06-22T02:07:33;18.80;1.00
21331;DHT22;10824;51.632;4.950;2023-06-22T02:10:05;18.80;1.00
21331;DHT22;10824;51.632;4.950;2023-06-22T02:12:35;18.80;1.00
21331;DHT22;10824;51.632;4.950;2023-06-22T02:15:03;18.70;1.00
21331;DHT22;10824;51.632;4.950;2023-06-22T02:17:33;18.80;1.00
21331;DHT22;10824;51.632;4.950;2023-06-22T02:20:02;18.80;1.00
21331;DHT22;10824;51.632;4.950;2023-06-22T02:22:31;18.90;1.00
21331;DHT22;10824;51.632;4.950;2023-06-22T02:24:58;18.80;1.00
21331;DHT22;10824;51.632;4.950;2023-06-22T02:27:26;18.80;1.00
21331;DHT22;10824;51.632;4.950;2023-06-22T02:29:53;18.70;1.00
21331;DHT22;10824;51.632;4.950;2023-06-22T02:32:20;18.80;1.00
21331;DHT22;10824;51.632;4.950;2023-06-22T02:34:47;18.80;1.00
21331;DHT22;10824;51.632;4.950;2023-06-22T02:37:15;18.60;11.20
21331;DHT22;10824;51.632;4.950;2023-06-22T02:39:44;18.70;67.70
21331;DHT22;10824;51.632;4.950;2023-06-22T02:42:11;18.70;59.70
21331;DHT22;10824;51.632;4.950;2023-06-22T02:44:38;18.60;99.90
21331;DHT22;10824;51.632;4.950;2023-06-22T02:47:07;18.50;99.90
21331;DHT22;10824;51.632;4.950;2023-06-22T02:49:35;18.40;99.90
21331;DHT22;10824;51.632;4.950;2023-06-22T02:52:03;18.40;99.90
21331;DHT22;10824;51.632;4.950;2023-06-22T02:54:30;18.40;99.90
21331;DHT22;10824;51.632;4.950;2023-06-22T02:56:57;18.50;99.90
21331;DHT22;10824;51.632;4.950;2023-06-22T02:59:24;18.50;99.90
21331;DHT22;10824;51.632;4.950;2023-06-22T03:01:59;18.50;99.90
21331;DHT22;10824;51.632;4.950;2023-06-22T03:04:29;18.50;99.90
21331;DHT22;10824;51.632;4.950;2023-06-22T03:06:58;18.60;99.90
21331;DHT22;10824;51.632;4.950;2023-06-22T03:09:30;18.50;99.90
21331;DHT22;10824;51.632;4.950;2023-06-22T03:11:57;18.40;99.90
21331;DHT22;10824;51.632;4.950;2023-06-22T03:14:30;18.40;1.00
21331;DHT22;10824;51.632;4.950;2023-06-22T03:16:57;18.30;1.00
21331;DHT22;10824;51.632;4.950;2023-06-22T03:19:30;18.30;1.00
21331;DHT22;10824;51.632;4.950;2023-06-22T03:21:59;18.30;1.00
21331;DHT22;10824;51.632;4.950;2023-06-22T03:24:29;18.30;1.00
21331;DHT22;10824;51.632;4.950;2023-06-22T03:26:56;18.30;1.00
21331;DHT22;10824;51.632;4.950;2023-06-22T03:29:23;18.30;1.00
21331;DHT22;10824;51.632;4.950;2023-06-22T03:31:55;18.40;1.00
21331;DHT22;10824;51.632;4.950;2023-06-22T03:34:23;18.40;1.00
21331;DHT22;10824;51.632;4.950;2023-06-22T03:36:52;18.40;1.00
21331;DHT22;10824;51.632;4.950;2023-06-22T03:39:19;18.40;1.00
21331;DHT22;10824;51.632;4.950;2023-06-22T03:41:47;18.40;1.00
21331;DHT22;10824;51.632;4.950;2023-06-22T03:44:17;18.30;14.90
21331;DHT22;10824;51.632;4.950;2023-06-22T03:46:44;18.30;99.90
21331;DHT22;10824;51.632;4.950;2023-06-22T03:49:11;18.20;99.90
21331;DHT22;10824;51.632;4.950;2023-06-22T03:51:38;18.20;99.90
21331;DHT22;10824;51.632;4.950;2023-06-22T03:54:08;18.20;1.00
21331;DHT22;10824;51.632;4.950;2023-06-22T03:56:36;18.20;1.00
21331;DHT22;10824;51.632;4.950;2023-06-22T03:59:03;18.20;1.00
21331;DHT22;10824;51.632;4.950;2023-06-22T04:01:32;18.20;1.00
21331;DHT22;10824;51.632;4.950;2023-06-22T04:03:59;18.20;9.90
21331;DHT22;10824;51.632;4.950;2023-06-22T04:06:26;18.20;99.90
21331;DHT22;10824;51.632;4.950;2023-06-22T04:08:53;18.20;99.90
21331;DHT22;10824;51.632;4.950;2023-06-22T04:11:21;18.20;99.90
21331;DHT22;10824;51.632;4.950;2023-06-22T04:13:49;18.20;99.90
21331;DHT22;10824;51.632;4.950;2023-06-22T04:16:18;18.30;99.90
21331;DHT22;10824;51.632;4.950;2023-06-22T04:18:45;18.40;15.60
21331;DHT22;10824;51.632;4.950;2023-06-22T04:21:13;18.40;1.00
21331;DHT22;10824;51.632;4.950;2023-06-22T04:23:40;18.40;1.00
21331;DHT22;10824;51.632;4.950;2023-06-22T04:26:08;18.40;1.00
21331;DHT22;10824;51.632;4.950;2023-06-22T04:28:37;18.50;1.00
21331;DHT22;10824;51.632;4.950;2023-06-22T04:31:05;18.50;1.00
21331;DHT22;10824;51.632;4.950;2023-06-22T04:33:33;18.50;1.00
21331;DHT22;10824;51.632;4.950;2023-06-22T04:36:00;18.50;1.00
21331;DHT22;10824;51.632;4.950;2023-06-22T04:38:43;18.50;1.00
21331;DHT22;10824;51.632;4.950;2023-06-22T04:41:13;18.50;1.00
21331;DHT22;10824;51.632;4.950;2023-06-22T04:43:51;18.60;1.00
21331;DHT22;10824;51.632;4.950;2023-06-22T04:46:21;18.60;1.00
21331;DHT22;10824;51.632;4.950;2023-06-22T04:48:48;18.60;1.00
21331;DHT22;10824;51.632;4.950;2023-06-22T04:51:15;18.70;1.00
21331;DHT22;10824;51.632;4.950;2023-06-22T04:53:42;18.60;1.00
21331;DHT22;10824;51.632;4.950;2023-06-22T04:56:10;18.70;1.00
21331;DHT22;10824;51.632;4.950;2023-06-22T04:58:37;18.70;99.90
21331;DHT22;10824;51.632;4.950;2023-06-22T05:01:04;18.70;99.90
21331;DHT22;10824;51.632;4.950;2023-06-22T05:03:36;18.80;99.90
21331;DHT22;10824;51.632;4.950;2023-06-22T05:06:03;18.80;99.90
21331;DHT22;10824;51.632;4.950;2023-06-22T05:08:31;18.90;99.90
21331;DHT22;10824;51.632;4.950;2023-06-22T05:10:58;19.00;99.90
21331;DHT22;10824;51.632;4.950;2023-06-22T05:13:32;19.10;99.90
21331;DHT22;10824;51.632;4.950;2023-06-22T05:16:00;19.00;99.90
21331;DHT22;10824;51.632;4.950;2023-06-22T05:18:30;19.00;99.90
21331;DHT22;10824;51.632;4.950;2023-06-22T05:20:59;19.10;99.90
21331;DHT22;10824;51.632;4.950;2023-06-22T05:23:26;19.10;99.90
21331;DHT22;10824;51.632;4.950;2023-06-22T05:25:54;19.10;99.90
21331;DHT22;10824;51.632;4.950;2023-06-22T05:28:25;19.10;99.90
21331;DHT22;10824;51.632;4.950;2023-06-22T05:30:53;19.20;99.90
21331;DHT22;10824;51.632;4.950;2023-06-22T05:33:20;19.20;99.90
21331;DHT22;10824;51.632;4.950;2023-06-22T05:35:48;19.30;99.90
21331;DHT22;10824;51.632;4.950;2023-06-22T05:38:15;19.30;99.90
21331;DHT22;10824;51.632;4.950;2023-06-22T05:40:42;19.40;99.90
21331;DHT22;10824;51.632;4.950;2023-06-22T05:43:09;19.50;99.90
21331;DHT22;10824;51.632;4.950;2023-06-22T05:45:37;19.50;62.70
21331;DHT22;10824;51.632;4.950;2023-06-22T05:48:05;19.50;99.90
21331;DHT22;10824;51.632;4.950;2023-06-22T05:50:33;19.50;74.40
21331;DHT22;10824;51.632;4.950;2023-06-22T05:53:01;19.60;1.00
21331;DHT22;10824;51.632;4.950;2023-06-22T05:55:28;19.70;1.00
21331;DHT22;10824;51.632;4.950;2023-06-22T05:57:56;19.70;1.00
21331;DHT22;10824;51.632;4.950;2023-06-22T06:00:26;19.90;1.00
21331;DHT22;10824;51.632;4.950;2023-06-22T06:03:07;19.90;1.00
21331;DHT22;10824;51.632;4.950;2023-06-22T06:05:36;19.90;99.90
21331;DHT22;10824;51.632;4.950;2023-06-22T06:08:05;19.90;99.90
21331;DHT22;10824;51.632;4.950;2023-06-22T06:10:33;19.90;99.90
21331;DHT22;10824;51.632;4.950;2023-06-22T06:13:01;19.90;99.90
21331;DHT22;10824;51.632;4.950;2023-06-22T06:15:32;19.90;99.90
21331;DHT22;10824;51.632;4.950;2023-06-22T06:17:59;20.00;65.00
21331;DHT22;10824;51.632;4.950;2023-06-22T06:20:27;20.10;1.00
21331;DHT22;10824;51.632;4.950;2023-06-22T06:22:58;20.20;1.00
21331;DHT22;10824;51.632;4.950;2023-06-22T06:25:25;20.20;1.00
21331;DHT22;10824;51.632;4.950;2023-06-22T06:27:53;20.20;1.00
21331;DHT22;10824;51.632;4.950;2023-06-22T06:30:21;20.30;1.00
21331;DHT22;10824;51.632;4.950;2023-06-22T06:32:50;20.40;1.00
21331;DHT22;10824;51.632;4.950;2023-06-22T06:35:18;20.40;1.00
21331;DHT22;10824;51.632;4.950;2023-06-22T06:37:47;20.60;1.00
21331;DHT22;10824;51.632;4.950;2023-06-22T06:40:16;20.70;99.90
21331;DHT22;10824;51.632;4.950;2023-06-22T06:42:46;20.80;99.90
21331;DHT22;10824;51.632;4.950;2023-06-22T06:45:21;20.80;99.90
21331;DHT22;10824;51.632;4.950;2023-06-22T06:47:52;20.80;99.90
21331;DHT22;10824;51.632;4.950;2023-06-22T06:50:24;20.80;99.90
21331;DHT22;10824;51.632;4.950;2023-06-22T06:52:51;21.00;99.90
21331;DHT22;10824;51.632;4.950;2023-06-22T06:55:19;21.00;99.90
21331;DHT22;10824;51.632;4.950;2023-06-22T06:57:47;21.10;99.90
21331;DHT22;10824;51.632;4.950;2023-06-22T07:00:15;21.30;99.90
21331;DHT22;10824;51.632;4.950;2023-06-22T07:02:44;21.40;63.50
21331;DHT22;10824;51.632;4.950;2023-06-22T07:05:17;21.40;70.30
21331;DHT22;10824;51.632;4.950;2023-06-22T07:07:44;21.50;22.90
21331;DHT22;10824;51.632;4.950;2023-06-22T07:10:11;21.40;24.50
21331;DHT22;10824;51.632;4.950;2023-06-22T07:12:40;21.40;2.20
21331;DHT22;10824;51.632;4.950;2023-06-22T07:15:09;21.50;6.50
21331;DHT22;10824;51.632;4.950;2023-06-22T07:17:39;21.50;1.00
21331;DHT22;10824;51.632;4.950;2023-06-22T07:20:08;21.50;37.20
21331;DHT22;10824;51.632;4.950;2023-06-22T07:22:40;21.50;5.10
21331;DHT22;10824;51.632;4.950;2023-06-22T07:25:08;21.50;1.00
21331;DHT22;10824;51.632;4.950;2023-06-22T07:28:03;21.70;1.00
21331;DHT22;10824;51.632;4.950;2023-06-22T07:30:32;21.70;1.00
21331;DHT22;10824;51.632;4.950;2023-06-22T07:33:01;21.70;1.00
21331;DHT22;10824;51.632;4.950;2023-06-22T07:35:31;21.80;1.00
21331;DHT22;10824;51.632;4.950;2023-06-22T07:37:59;21.70;1.00
21331;DHT22;10824;51.632;4.950;2023-06-22T07:40:31;21.70;1.00
21331;DHT22;10824;51.632;4.950;2023-06-22T07:42:59;21.80;1.00
21331;DHT22;10824;51.632;4.950;2023-06-22T07:45:26;21.90;1.00
21331;DHT22;10824;51.632;4.950;2023-06-22T07:47:54;21.80;1.00
21331;DHT22;10824;51.632;4.950;2023-06-22T07:50:21;21.90;1.00
21331;DHT22;10824;51.632;4.950;2023-06-22T07:52:49;22.00;1.00
21331;DHT22;10824;51.632;4.950;2023-06-22T07:55:16;22.00;99.90
21331;DHT22;10824;51.632;4.950;2023-06-22T07:57:43;22.10;99.90
21331;DHT22;10824;51.632;4.950;2023-06-22T08:00:11;22.10;99.90
21331;DHT22;10824;51.632;4.950;2023-06-22T08:02:45;22.10;99.90
21331;DHT22;10824;51.632;4.950;2023-06-22T08:05:14;22.00;99.90
21331;DHT22;10824;51.632;4.950;2023-06-22T08:07:48;22.20;99.90
21331;DHT22;10824;51.632;4.950;2023-06-22T08:10:15;22.20;99.90
21331;DHT22;10824;51.632;4.950;2023-06-22T08:12:43;22.40;99.90
21331;DHT22;10824;51.632;4.950;2023-06-22T08:15:11;22.30;99.90
21331;DHT22;10824;51.632;4.950;2023-06-22T08:17:39;22.30;99.90
21331;DHT22;10824;51.632;4.950;2023-06-22T08:20:07;22.30;1.00
21331;DHT22;10824;51.632;4.950;2023-06-22T08:22:42;22.30;1.00
21331;DHT22;10824;51.632;4.950;2023-06-22T08:25:10;22.20;1.00
21331;DHT22;10824;51.632;4.950;2023-06-22T08:27:38;22.30;1.00
21331;DHT22;10824;51.632;4.950;2023-06-22T08:30:07;22.30;1.00
21331;DHT22;10824;51.632;4.950;2023-06-22T08:32:34;22.30;1.00
21331;DHT22;10824;51.632;4.950;2023-06-22T08:35:02;22.30;1.00
21331;DHT22;10824;51.632;4.950;2023-06-22T08:37:30;22.30;1.00
21331;DHT22;10824;51.632;4.950;2023-06-22T08:40:04;22.30;1.00
21331;DHT22;10824;51.632;4.950;2023-06-22T08:42:32;22.40;1.00
21331;DHT22;10824;51.632;4.950;2023-06-22T08:45:00;22.30;1.00
21331;DHT22;10824;51.632;4.950;2023-06-22T08:47:27;22.30;1.00
21331;DHT22;10824;51.632;4.950;2023-06-22T08:49:56;22.30;1.00
21331;DHT22;10824;51.632;4.950;2023-06-22T08:52:23;22.30;1.00
21331;DHT22;10824;51.632;4.950;2023-06-22T08:54:51;22.30;1.00
21331;DHT22;10824;51.632;4.950;2023-06-22T08:57:18;22.30;1.00
21331;DHT22;10824;51.632;4.950;2023-06-22T08:59:46;22.40;1.00
21331;DHT22;10824;51.632;4.950;2023-06-22T09:02:13;22.30;1.00
21331;DHT22;10824;51.632;4.950;2023-06-22T09:04:40;22.40;1.00
21331;DHT22;10824;51.632;4.950;2023-06-22T09:07:12;22.40;1.00
21331;DHT22;10824;51.632;4.950;2023-06-22T09:09:40;22.30;1.00
21331;DHT22;10824;51.632;4.950;2023-06-22T09:12:07;22.40;1.00
21331;DHT22;10824;51.632;4.950;2023-06-22T09:14:35;22.50;1.00
21331;DHT22;10824;51.632;4.950;2023-06-22T09:17:02;22.50;1.00
21331;DHT22;10824;51.632;4.950;2023-06-22T09:19:29;22.50;1.00
21331;DHT22;10824;51.632;4.950;2023-06-22T09:21:56;22.50;1.00
21331;DHT22;10824;51.632;4.950;2023-06-22T09:24:24;22.50;1.00
21331;DHT22;10824;51.632;4.950;2023-06-22T09:26:51;22.40;1.00
21331;DHT22;10824;51.632;4.950;2023-06-22T09:29:18;22.50;1.00
21331;DHT22;10824;51.632;4.950;2023-06-22T09:31:45;22.50;1.00
21331;DHT22;10824;51.632;4.950;2023-06-22T09:34:12;22.60;1.00
21331;DHT22;10824;51.632;4.950;2023-06-22T09:36:41;22.60;99.90
21331;DHT22;10824;51.632;4.950;2023-06-22T09:39:08;22.60;99.90
21331;DHT22;10824;51.632;4.950;2023-06-22T09:41:35;22.70;99.90
21331;DHT22;10824;51.632;4.950;2023-06-22T09:44:02;22.70;99.90
21331;DHT22;10824;51.632;4.950;2023-06-22T09:46:29;22.70;99.90
21331;DHT22;10824;51.632;4.950;2023-06-22T09:48:57;22.60;99.90
21331;DHT22;10824;51.632;4.950;2023-06-22T09:51:24;22.70;99.90
21331;DHT22;10824;51.632;4.950;2023-06-22T09:53:52;22.70;99.90
21331;DHT22;10824;51.632;4.950;2023-06-22T09:56:20;22.60;99.90
21331;DHT22;10824;51.632;4.950;2023-06-22T09:58:50;22.60;99.90
21331;DHT22;10824;51.632;4.950;2023-06-22T10:01:39;22.60;99.90
21331;DHT22;10824;51.632;4.950;2023-06-22T10:04:07;22.70;99.90
21331;DHT22;10824;51.632;4.950;2023-06-22T10:06:37;22.70;99.90
21331;DHT22;10824;51.632;4.950;2023-06-22T10:09:08;22.70;99.90
21331;DHT22;10824;51.632;4.950;2023-06-22T10:11:35;22.80;99.90
21331;DHT22;10824;51.632;4.950;2023-06-22T10:14:04;22.80;99.90
21331;DHT22;10824;51.632;4.950;2023-06-22T10:16:31;22.80;99.90
21331;DHT22;10824;51.632;4.950;2023-06-22T10:19:01;22.80;99.90
21331;DHT22;10824;51.632;4.950;2023-06-22T10:21:29;22.80;99.90
21331;DHT22;10824;51.632;4.950;2023-06-22T10:23:56;22.80;99.90
21331;DHT22;10824;51.632;4.950;2023-06-22T10:26:23;22.70;99.90
21331;DHT22;10824;51.632;4.950;2023-06-22T10:28:54;22.80;99.90
21331;DHT22;10824;51.632;4.950;2023-06-22T10:31:42;22.90;99.90
21331;DHT22;10824;51.632;4.950;2023-06-22T10:34:09;22.90;99.90
21331;DHT22;10824;51.632;4.950;2023-06-22T10:36:36;22.90;99.90
21331;DHT22;10824;51.632;4.950;2023-06-22T10:39:04;22.90;99.90
21331;DHT22;10824;51.632;4.950;2023-06-22T10:41:31;22.90;99.90
21331;DHT22;10824;51.632;4.950;2023-06-22T10:44:11;22.80;99.90
21331;DHT22;10824;51.632;4.950;2023-06-22T10:49:41;22.80;99.90
21331;DHT22;10824;51.632;4.950;2023-06-22T10:52:09;22.90;99.90
21331;DHT22;10824;51.632;4.950;2023-06-22T10:54:39;22.90;99.90
21331;DHT22;10824;51.632;4.950;2023-06-22T10:57:11;22.90;99.90
21331;DHT22;10824;51.632;4.950;2023-06-22T10:59:39;22.80;99.90
21331;DHT22;10824;51.632;4.950;2023-06-22T11:02:06;22.80;99.90
21331;DHT22;10824;51.632;4.950;2023-06-22T11:04:34;22.80;1.40
21331;DHT22;10824;51.632;4.950;2023-06-22T11:07:05;22.80;1.00
21331;DHT22;10824;51.632;4.950;2023-06-22T11:09:33;22.80;1.00
21331;DHT22;10824;51.632;4.950;2023-06-22T11:12:00;22.70;1.00
21331;DHT22;10824;51.632;4.950;2023-06-22T11:14:27;22.80;1.00
21331;DHT22;10824;51.632;4.950;2023-06-22T11:16:55;22.80;1.00
21331;DHT22;10824;51.632;4.950;2023-06-22T11:19:23;22.80;1.00
21331;DHT22;10824;51.632;4.950;2023-06-22T11:21:50;22.80;99.90
21331;DHT22;10824;51.632;4.950;2023-06-22T11:24:18;22.90;85.00
21331;DHT22;10824;51.632;4.950;2023-06-22T11:26:46;22.90;8.90
21331;DHT22;10824;51.632;4.950;2023-06-22T11:29:15;22.90;99.90
21331;DHT22;10824;51.632;4.950;2023-06-22T11:32:02;22.90;99.90
21331;DHT22;10824;51.632;4.950;2023-06-22T11:34:30;22.80;8.60
21331;DHT22;10824;51.632;4.950;2023-06-22T11:36:57;22.80;25.50
21331;DHT22;10824;51.632;4.950;2023-06-22T11:39:24;22.80;99.90
21331;DHT22;10824;51.632;4.950;2023-06-22T11:42:07;22.90;99.90
21331;DHT22;10824;51.632;4.950;2023-06-22T11:44:36;22.80;1.00
21331;DHT22;10824;51.632;4.950;2023-06-22T11:47:05;22.80;99.90
21331;DHT22;10824;51.632;4.950;2023-06-22T11:49:32;22.80;1.00
21331;DHT22;10824;51.632;4.950;2023-06-22T11:52:05;22.80;1.00
21331;DHT22;10824;51.632;4.950;2023-06-22T11:54:32;22.70;1.00
21331;DHT22;10824;51.632;4.950;2023-06-22T11:57:00;22.60;4.60
21331;DHT22;10824;51.632;4.950;2023-06-22T11:59:27;22.50;1.00
21331;DHT22;10824;51.632;4.950;2023-06-22T12:01:57;22.40;1.00
21331;DHT22;10824;51.632;4.950;2023-06-22T12:04:25;22.30;1.00
21331;DHT22;10824;51.632;4.950;2023-06-22T12:06:53;22.30;99.90
21331;DHT22;10824;51.632;4.950;2023-06-22T12:09:38;22.20;1.00
21331;DHT22;10824;51.632;4.950;2023-06-22T12:13:21;22.20;1.00
21331;DHT22;10824;51.632;4.950;2023-06-22T12:15:49;22.10;99.90
21331;DHT22;10824;51.632;4.950;2023-06-22T12:18:19;22.10;99.90
21331;DHT22;10824;51.632;4.950;2023-06-22T12:20:48;22.10;99.90
21331;DHT22;10824;51.632;4.950;2023-06-22T12:23:17;22.20;73.80
21331;DHT22;10824;51.632;4.950;2023-06-22T12:25:51;22.20;1.00
21331;DHT22;10824;51.632;4.950;2023-06-22T12:28:20;22.10;1.00
21331;DHT22;10824;51.632;4.950;2023-06-22T12:30:53;22.00;1.00
21331;DHT22;10824;51.632;4.950;2023-06-22T12:33:44;22.10;99.90
21331;DHT22;10824;51.632;4.950;2023-06-22T12:36:30;22.10;1.00
21331;DHT22;10824;51.632;4.950;2023-06-22T12:39:36;22.00;99.90
21331;DHT22;10824;51.632;4.950;2023-06-22T12:42:12;21.90;99.90
21331;DHT22;10824;51.632;4.950;2023-06-22T12:44:59;22.00;99.90
21331;DHT22;10824;51.632;4.950;2023-06-22T12:48:09;21.90;1.00
21331;DHT22;10824;51.632;4.950;2023-06-22T12:51:21;21.70;19.60
21331;DHT22;10824;51.632;4.950;2023-06-22T12:53:57;21.70;99.90
21331;DHT22;10824;51.632;4.950;2023-06-22T12:56:33;21.50;99.90
21331;DHT22;10824;51.632;4.950;2023-06-22T12:59:07;21.60;99.90
21331;DHT22;10824;51.632;4.950;2023-06-22T13:01:38;21.60;99.90
21331;DHT22;10824;51.632;4.950;2023-06-22T13:04:13;21.60;99.90
21331;DHT22;10824;51.632;4.950;2023-06-22T13:07:19;21.50;1.00
21331;DHT22;10824;51.632;4.950;2023-06-22T13:10:14;21.50;1.00
21331;DHT22;10824;51.632;4.950;2023-06-22T13:12:45;21.40;1.00
21331;DHT22;10824;51.632;4.950;2023-06-22T13:15:12;21.40;1.00
21331;DHT22;10824;51.632;4.950;2023-06-22T13:17:39;21.30;1.00
21331;DHT22;10824;51.632;4.950;2023-06-22T13:20:08;21.40;99.90
21331;DHT22;10824;51.632;4.950;2023-06-22T13:22:54;21.40;99.90
21331;DHT22;10824;51.632;4.950;2023-06-22T13:25:23;21.10;99.90
21331;DHT22;10824;51.632;4.950;2023-06-22T13:28:46;21.20;99.90
21331;DHT22;10824;51.632;4.950;2023-06-22T13:32:08;21.10;99.90
21331;DHT22;10824;51.632;4.950;2023-06-22T13:35:02;21.20;1.00
21331;DHT22;10824;51.632;4.950;2023-06-22T14:02:17;21.30;1.00
21331;DHT22;10824;51.632;4.950;2023-06-22T14:44:59;20.70;1.00
21331;DHT22;10824;51.632;4.950;2023-06-22T15:02:14;20.70;99.90
21331;DHT22;10824;51.632;4.950;2023-06-22T15:47:13;20.60;99.90
21331;DHT22;10824;51.632;4.950;2023-06-22T15:50:51;20.60;99.90
21331;DHT22;10824;51.632;4.950;2023-06-22T16:05:33;20.40;99.90
21331;DHT22;10824;51.632;4.950;2023-06-22T16:08:39;20.40;99.90
21331;DHT22;10824;51.632;4.950;2023-06-22T16:28:00;20.50;99.90
21331;DHT22;10824;51.632;4.950;2023-06-22T16:30:44;20.40;99.90
21331;DHT22;10824;51.632;4.950;2023-06-22T16:46:49;20.10;1.00
21331;DHT22;10824;51.632;4.950;2023-06-22T16:49:56;20.10;63.90
21331;DHT22;10824;51.632;4.950;2023-06-22T17:38:09;19.70;1.00
21331;DHT22;10824;51.632;4.950;2023-06-22T19:50:05;19.60;4.70
21331;DHT22;10824;51.632;4.950;2023-06-22T19:52:40;19.60;1.00
21331;DHT22;10824;51.632;4.950;2023-06-22T19:55:11;19.60;1.00
21331;DHT22;10824;51.632;4.950;2023-06-22T19:57:42;19.60;99.90
21331;DHT22;10824;51.632;4.950;2023-06-22T20:00:13;19.60;99.90
21331;DHT22;10824;51.632;4.950;2023-06-22T20:02:43;19.60;24.80
21331;DHT22;10824;51.632;4.950;2023-06-22T20:05:12;19.50;37.10
21331;DHT22;10824;51.632;4.950;2023-06-22T20:07:41;19.60;59.00
21331;DHT22;10824;51.632;4.950;2023-06-22T20:10:15;19.60;13.20
21331;DHT22;10824;51.632;4.950;2023-06-22T22:35:09;18.10;99.90
21331;DHT22;10824;51.632;4.950;2023-06-22T22:58:38;17.90;99.90
21331;DHT22;10824;51.632;4.950;2023-06-22T23:02:18;17.90;99.90
21331;DHT22;10824;51.632;4.950;2023-06-22T23:09:45;17.90;99.90
21331;DHT22;10824;51.632;4.950;2023-06-22T23:29:05;17.80;1.00
21331;DHT22;10824;51.632;4.950;2023-06-22T23:31:38;17.80;1.00
21331;DHT22;10824;51.632;4.950;2023-06-22T23:34:23;17.80;1.00
21331;DHT22;10824;51.632;4.950;2023-06-22T23:44:17;17.80;1.00
21331;DHT22;10824;51.632;4.950;2023-06-22T23:50:38;17.70;1.00
21331;DHT22;10824;51.632;4.950;2023-06-22T23:54:13;17.70;1.00
